Portada
METAR-TAF:

METAR-TAF

Aeroports :

Funafuti, Tuvalu

latitud: 08-31S, longitud: 179-13E, altitud: 1 m

Observació

L'informe es va fer fa 40 minuts, a les 03:00 UTC
Vent 6 kt del Est
Temperatura 32°C
Humitat 67%
Pressió 1009 hPa
Visibilitat 10 km o més
Escasses núvols a una alçada de 1700 ft, Cumulus congestus.

METAR: NGFU 180300Z 08006KT 9999 FEW017TCU 32/25 Q1009

Hora: 15:40 (03:40 UTC)

Pronòstic

L'informe es va fer fa 4 hores i 15 minuts, a les 23:25 UTC
Pronòstic vàlid del 18 a les 00 UTC al 18 a les 24 UTC
Vent 6 kt del Est
Visibilitat 10 km o més
Núvols disperses a una alçada de 2000 ft
Núvols disperses a una alçada de 10000 ft
Probabilitat 30% :
Temporalment
l' 18 a les 00 UTC al 18 a les 06 UTC
Visibilitat: 6000 m
Escasses núvols a una alçada de 1800 ft, Cumulonimbus.
tempesta, pluja

TAF: NGFU 172325Z 1800/1824 10006KT 9999 SCT020 SCT100 PROB30 TEMPO 1800/1806 6000 TSRA FEW018CB

Observacions i pronòstics meteorològics de més de 4000 aeroports (METAR i TAF).

Les estacions disponibles són els punts grocs i vermells al mapa.

Posi el ratolí al punt desitjat per veure el nom de l'estació.

Feu clic per veure les observacions i els pronòstics meteorològics.

Per canviar el mapa: feu clic els botons verds amb una creu de color negre per apropar; al botó verd amb un guió per allunyar la imatge; o en les fletxes verdes per a mapes adjacents.


METAR-TAF: